Redlands, California
Current Conditions -  °F | °C
As of 11:58 AM on Saturday 20 Dec 2014 (Local Time) from KRIV Reporting Station
Broken Clouds Broken Clouds  
Wind Chill: 55°   Ceiling: 20000
Heat Index: 55°   Visibility: 10mi
Dew Point: 49°   Wind: 0mph
Humidity: 79%   Direction: NA
Pressure: 30.15"   Gusts: NA
Location:  34.06°N, 117.18°W
Report Text: KRIV 201958Z 00000KT 10SM BKN200 BKN300 13/09 A3015 RMK AO2A SLP210 T01270092
Loading
Personal Weather Stations






























Interactive Weather Map New forecast layout! Learn more

10-Day Weather Forecast

Advertisements
Track Severe Weather on mobile